This is the latest recevied weather packets stored in our database for station/object N4HAC. If no packets are shown the sender has not sent any weather packets the latest 1 day(s).
| Time | Temp. | Humidity | Pressure | Rain* | Wind** | Luminosity | Snow |
|---|---|---|---|---|---|---|---|
| 1778086349 | 18.33° C | 89% | 1003.6 hPa | 0 mm | - | 312 W/m² | - |
| 1778085743 | 17.78° C | 89% | 1003.3 hPa | 0 mm | - | 275 W/m² | - |
| 1778083015 | 17.22° C | 93% | 1003.7 hPa | 0 mm | - | 299 W/m² | - |
| 1778082712 | 16.67° C | 94% | 1003.8 hPa | 0 mm | - | 334 W/m² | - |
| 1778081574 | 16.11° C | 97% | 1003.6 hPa | 0 mm | - | 149 W/m² | - |
| 1778080060 | 15.56° C | 99% | 1003.7 hPa | 0 mm | - | 114 W/m² | - |
| 1778078848 | 15.56° C | 99% | 1004.1 hPa | 0 mm | - | 236 W/m² | - |
| 1778078545 | 15.56° C | 99% | 1004.3 hPa | 0.51 mm | - | 184 W/m² | - |
| 1778077940 | 15° C | 99% | 1004.1 hPa | 0 mm | - | 73 W/m² | - |
| 1778077336 | 15° C | 99% | 1004 hPa | 0.51 mm | - | 64 W/m² | - |
| 1778076126 | 15° C | 99% | 1004.6 hPa | 0.51 mm | - | 81 W/m² | - |
| 1778075519 | 15° C | 99% | 1004.2 hPa | 0 mm | - | 84 W/m² | - |
| 1778072488 | 15° C | 99% | 1004 hPa | 1.78 mm | - | 50 W/m² | - |
| 1778071279 | 15° C | 97% | 1004.3 hPa | 2.29 mm | - | 40 W/m² | - |
| 1778070675 | 15° C | 97% | 1004.8 hPa | 1.27 mm | - | 26 W/m² | - |
| 1778068254 | 15.56° C | 96% | 1004.2 hPa | 0.51 mm | - | 16 W/m² | - |
| 1778067649 | 15.56° C | 94% | 1004.5 hPa | 1.78 mm | - | 28 W/m² | - |
| 1778067044 | 15.56° C | 92% | 1004.6 hPa | 1.78 mm | - | 14 W/m² | - |
| 1778066740 | 15.56° C | 91% | 1004.5 hPa | 1.27 mm | - | 10 W/m² | - |
| 1778064923 | 16.67° C | 83% | 1004 hPa | 0.51 mm | - | 4 W/m² | - |
| 1778063410 | 17.78° C | 77% | 1004 hPa | 0 mm | - | 2 W/m² | - |
| 1778063108 | 17.78° C | 77% | 1003.8 hPa | 0 mm | - | 3 W/m² | - |
| 1778062199 | 17.78° C | 76% | 1003.7 hPa | 0 mm | - | 1 W/m² | - |
| 1778061595 | 17.78° C | 76% | 1003.7 hPa | 0 mm | - | 0 W/m² | - |
| 1778060083 | 17.78° C | 75% | 1003.6 hPa | 0 mm | - | 0 W/m² | - |
* Rain latest hour (hover to see other rain measurements)
** Current wind speed in m/s (hover to see current wind gust speed)